sensor_id;sensor_type;location;lat;lon;timestamp;pressure;altitude;pressure_sealevel;temperature;humidity
16821;BME280;8527;49.740;6.604;2023-02-02T00:02:42;100505.53;;;6.23;98.74
16821;BME280;8527;49.740;6.604;2023-02-02T00:07:40;100506.59;;;6.21;99.11
16821;BME280;8527;49.740;6.604;2023-02-02T00:12:38;100511.16;;;6.18;99.94
16821;BME280;8527;49.740;6.604;2023-02-02T00:17:45;100514.75;;;6.17;100.00
16821;BME280;8527;49.740;6.604;2023-02-02T00:22:46;100510.31;;;6.18;100.00
16821;BME280;8527;49.740;6.604;2023-02-02T00:27:47;100519.19;;;6.17;100.00
16821;BME280;8527;49.740;6.604;2023-02-02T00:32:51;100524.34;;;6.18;100.00
16821;BME280;8527;49.740;6.604;2023-02-02T00:37:49;100529.72;;;6.17;100.00
16821;BME280;8527;49.740;6.604;2023-02-02T00:42:53;100529.84;;;6.15;100.00
16821;BME280;8527;49.740;6.604;2023-02-02T00:47:56;100524.44;;;6.17;100.00
16821;BME280;8527;49.740;6.604;2023-02-02T00:52:55;100528.03;;;6.16;100.00
16821;BME280;8527;49.740;6.604;2023-02-02T00:57:53;100530.69;;;6.16;100.00
16821;BME280;8527;49.740;6.604;2023-02-02T01:02:57;100529.00;;;6.15;100.00
16821;BME280;8527;49.740;6.604;2023-02-02T01:07:58;100529.25;;;6.12;100.00
16821;BME280;8527;49.740;6.604;2023-02-02T01:12:57;100524.81;;;6.12;100.00
16821;BME280;8527;49.740;6.604;2023-02-02T01:17:58;100519.66;;;6.11;100.00
16821;BME280;8527;49.740;6.604;2023-02-02T01:22:57;100522.31;;;6.11;100.00
16821;BME280;8527;49.740;6.604;2023-02-02T01:27:56;100535.59;;;6.09;100.00
16821;BME280;8527;49.740;6.604;2023-02-02T01:32:54;100532.84;;;6.11;100.00
16821;BME280;8527;49.740;6.604;2023-02-02T01:37:55;100533.19;;;6.06;100.00
16821;BME280;8527;49.740;6.604;2023-02-02T01:42:56;100536.78;;;6.05;100.00
16821;BME280;8527;49.740;6.604;2023-02-02T01:47:58;100528.91;;;6.05;100.00
16821;BME280;8527;49.740;6.604;2023-02-02T01:53:01;100533.91;;;6.08;100.00
16821;BME280;8527;49.740;6.604;2023-02-02T01:58:03;100539.91;;;6.10;100.00
16821;BME280;8527;49.740;6.604;2023-02-02T02:03:05;100539.28;;;6.07;100.00
16821;BME280;8527;49.740;6.604;2023-02-02T02:08:12;100541.22;;;6.04;100.00
16821;BME280;8527;49.740;6.604;2023-02-02T02:13:11;100539.53;;;6.03;100.00
16821;BME280;8527;49.740;6.604;2023-02-02T02:18:20;100541.47;;;6.01;100.00
16821;BME280;8527;49.740;6.604;2023-02-02T02:23:59;100544.69;;;6.05;100.00
16821;BME280;8527;49.740;6.604;2023-02-02T02:34:47;100554.28;;;6.06;100.00
16821;BME280;8527;49.740;6.604;2023-02-02T02:39:53;100553.22;;;6.09;100.00
16821;BME280;8527;49.740;6.604;2023-02-02T02:44:52;100542.06;;;6.05;100.00
16821;BME280;8527;49.740;6.604;2023-02-02T02:49:58;100556.81;;;6.08;100.00
16821;BME280;8527;49.740;6.604;2023-02-02T02:54:58;100553.56;;;6.04;100.00
16821;BME280;8527;49.740;6.604;2023-02-02T03:00:02;100539.84;;;5.99;100.00
16821;BME280;8527;49.740;6.604;2023-02-02T03:05:15;100531.59;;;5.92;100.00
16821;BME280;8527;49.740;6.604;2023-02-02T03:10:21;100528.00;;;5.93;100.00
16821;BME280;8527;49.740;6.604;2023-02-02T03:15:25;100524.31;;;5.96;100.00
16821;BME280;8527;49.740;6.604;2023-02-02T03:20:34;100526.94;;;5.96;100.00
16821;BME280;8527;49.740;6.604;2023-02-02T03:25:33;100526.94;;;5.96;100.00
16821;BME280;8527;49.740;6.604;2023-02-02T03:30:32;100530.41;;;5.96;100.00
16821;BME280;8527;49.740;6.604;2023-02-02T03:35:33;100531.50;;;5.94;100.00
16821;BME280;8527;49.740;6.604;2023-02-02T03:40:35;100535.19;;;5.91;100.00
16821;BME280;8527;49.740;6.604;2023-02-02T03:45:33;100540.47;;;5.91;100.00
16821;BME280;8527;49.740;6.604;2023-02-02T03:50:39;100550.78;;;5.94;100.00
16821;BME280;8527;49.740;6.604;2023-02-02T03:55:37;100547.66;;;6.00;100.00
16821;BME280;8527;49.740;6.604;2023-02-02T04:00:38;100551.50;;;5.96;100.00
16821;BME280;8527;49.740;6.604;2023-02-02T04:05:43;100545.38;;;5.96;100.00
16821;BME280;8527;49.740;6.604;2023-02-02T04:10:41;100550.28;;;6.00;100.00
16821;BME280;8527;49.740;6.604;2023-02-02T04:15:42;100550.53;;;5.97;100.00
16821;BME280;8527;49.740;6.604;2023-02-02T04:20:43;100545.03;;;6.00;100.00
16821;BME280;8527;49.740;6.604;2023-02-02T04:25:48;100543.44;;;5.98;100.00
16821;BME280;8527;49.740;6.604;2023-02-02T04:30:46;100539.03;;;5.98;100.00
16821;BME280;8527;49.740;6.604;2023-02-02T04:35:47;100537.22;;;5.99;100.00
16821;BME280;8527;49.740;6.604;2023-02-02T04:40:47;100542.50;;;5.99;100.00
16821;BME280;8527;49.740;6.604;2023-02-02T04:45:45;100549.44;;;6.00;100.00
16821;BME280;8527;49.740;6.604;2023-02-02T04:50:47;100554.84;;;5.98;100.00
16821;BME280;8527;49.740;6.604;2023-02-02T04:55:45;100564.91;;;6.04;100.00
16821;BME280;8527;49.740;6.604;2023-02-02T05:00:44;100568.50;;;6.03;100.00
16821;BME280;8527;49.740;6.604;2023-02-02T05:05:42;100585.03;;;6.05;100.00
16821;BME280;8527;49.740;6.604;2023-02-02T05:10:43;100587.81;;;6.04;100.00
16821;BME280;8527;49.740;6.604;2023-02-02T05:15:41;100593.78;;;6.06;100.00
16821;BME280;8527;49.740;6.604;2023-02-02T05:20:40;100584.69;;;6.10;100.00
16821;BME280;8527;49.740;6.604;2023-02-02T05:25:44;100592.59;;;6.10;100.00
16821;BME280;8527;49.740;6.604;2023-02-02T05:30:48;100589.13;;;6.10;100.00
16821;BME280;8527;49.740;6.604;2023-02-02T05:35:47;100595.81;;;6.14;100.00
16821;BME280;8527;49.740;6.604;2023-02-02T05:40:50;100600.38;;;6.12;100.00
16821;BME280;8527;49.740;6.604;2023-02-02T05:45:49;100605.66;;;6.12;100.00
16821;BME280;8527;49.740;6.604;2023-02-02T05:50:53;100621.34;;;6.13;100.00
16821;BME280;8527;49.740;6.604;2023-02-02T05:55:55;100630.94;;;6.14;100.00
16821;BME280;8527;49.740;6.604;2023-02-02T06:00:53;100622.06;;;6.15;100.00
16821;BME280;8527;49.740;6.604;2023-02-02T06:05:52;100617.16;;;6.11;100.00
16821;BME280;8527;49.740;6.604;2023-02-02T06:11:06;100619.66;;;6.12;100.00
16821;BME280;8527;49.740;6.604;2023-02-02T06:16:06;100617.97;;;6.11;100.00
16821;BME280;8527;49.740;6.604;2023-02-02T06:21:08;100625.28;;;6.08;100.00
16821;BME280;8527;49.740;6.604;2023-02-02T06:26:09;100614.84;;;6.06;100.00
16821;BME280;8527;49.740;6.604;2023-02-02T06:31:09;100625.41;;;6.06;100.00
16821;BME280;8527;49.740;6.604;2023-02-02T06:36:13;100616.53;;;6.07;100.00
16821;BME280;8527;49.740;6.604;2023-02-02T06:41:14;100622.75;;;6.06;100.00
16821;BME280;8527;49.740;6.604;2023-02-02T06:46:13;100622.75;;;6.06;100.00
16821;BME280;8527;49.740;6.604;2023-02-02T06:51:13;100614.97;;;6.04;100.00
16821;BME280;8527;49.740;6.604;2023-02-02T06:56:17;100606.25;;;6.04;100.00
16821;BME280;8527;49.740;6.604;2023-02-02T07:01:15;100612.34;;;6.04;100.00
16821;BME280;8527;49.740;6.604;2023-02-02T07:06:15;100617.38;;;6.08;100.00
16821;BME280;8527;49.740;6.604;2023-02-02T07:11:17;100619.88;;;6.09;100.00
16821;BME280;8527;49.740;6.604;2023-02-02T07:16:27;100626.63;;;6.13;100.00
16821;BME280;8527;49.740;6.604;2023-02-02T07:21:26;100626.63;;;6.13;100.00
16821;BME280;8527;49.740;6.604;2023-02-02T07:26:33;100643.84;;;6.17;100.00
16821;BME280;8527;49.740;6.604;2023-02-02T07:31:34;100656.06;;;6.18;99.64
16821;BME280;8527;49.740;6.604;2023-02-02T07:36:41;100675.13;;;6.22;99.53
16821;BME280;8527;49.740;6.604;2023-02-02T07:41:42;100687.97;;;6.27;99.35
16821;BME280;8527;49.740;6.604;2023-02-02T07:46:47;100692.84;;;6.31;99.10
16821;BME280;8527;49.740;6.604;2023-02-02T07:51:45;100691.31;;;6.40;98.49
16821;BME280;8527;49.740;6.604;2023-02-02T07:56:46;100690.13;;;6.44;98.68
16821;BME280;8527;49.740;6.604;2023-02-02T08:01:50;100695.75;;;6.51;98.23
16821;BME280;8527;49.740;6.604;2023-02-02T08:07:06;100685.94;;;6.53;98.10
16821;BME280;8527;49.740;6.604;2023-02-02T08:12:07;100697.09;;;6.57;98.13
16821;BME280;8527;49.740;6.604;2023-02-02T08:17:09;100696.59;;;6.63;97.23
16821;BME280;8527;49.740;6.604;2023-02-02T08:22:10;100696.25;;;6.68;96.96
16821;BME280;8527;49.740;6.604;2023-02-02T08:27:15;100694.56;;;6.78;97.48
16821;BME280;8527;49.740;6.604;2023-02-02T08:32:20;100684.53;;;6.72;97.42
16821;BME280;8527;49.740;6.604;2023-02-02T08:37:20;100695.06;;;6.72;97.52
16821;BME280;8527;49.740;6.604;2023-02-02T08:42:27;100705.97;;;6.67;98.36
16821;BME280;8527;49.740;6.604;2023-02-02T08:47:28;100715.81;;;6.65;98.95
16821;BME280;8527;49.740;6.604;2023-02-02T08:52:32;100709.56;;;6.66;98.96
16821;BME280;8527;49.740;6.604;2023-02-02T08:57:33;100708.47;;;6.69;98.42
16821;BME280;8527;49.740;6.604;2023-02-02T09:02:34;100715.66;;;6.78;98.00
16821;BME280;8527;49.740;6.604;2023-02-02T09:07:38;100708.97;;;6.85;97.33
16821;BME280;8527;49.740;6.604;2023-02-02T09:12:39;100728.97;;;6.88;97.60
16821;BME280;8527;49.740;6.604;2023-02-02T09:17:37;100732.94;;;6.94;97.12
16821;BME280;8527;49.740;6.604;2023-02-02T09:22:35;100735.81;;;6.90;96.19
16821;BME280;8527;49.740;6.604;2023-02-02T09:27:38;100747.06;;;6.93;96.29
16821;BME280;8527;49.740;6.604;2023-02-02T09:32:39;100751.38;;;6.94;96.27
16821;BME280;8527;49.740;6.604;2023-02-02T09:37:39;100760.25;;;6.93;96.08
16821;BME280;8527;49.740;6.604;2023-02-02T09:42:51;100773.34;;;6.94;95.78
16821;BME280;8527;49.740;6.604;2023-02-02T09:47:54;100764.13;;;7.00;95.49
16821;BME280;8527;49.740;6.604;2023-02-02T09:53:01;100762.31;;;7.00;95.04
16821;BME280;8527;49.740;6.604;2023-02-02T09:58:18;100744.78;;;7.11;94.93
16821;BME280;8527;49.740;6.604;2023-02-02T10:03:20;100777.16;;;7.36;94.26
16821;BME280;8527;49.740;6.604;2023-02-02T10:08:30;100761.31;;;7.47;94.30
16821;BME280;8527;49.740;6.604;2023-02-02T10:13:34;100773.94;;;7.76;93.12
16821;BME280;8527;49.740;6.604;2023-02-02T10:18:41;100771.41;;;7.86;91.88
16821;BME280;8527;49.740;6.604;2023-02-02T10:23:43;100782.44;;;7.91;91.65
16821;BME280;8527;49.740;6.604;2023-02-02T10:28:53;100788.03;;;8.09;91.97
16821;BME280;8527;49.740;6.604;2023-02-02T10:34:06;100799.63;;;8.18;90.82
16821;BME280;8527;49.740;6.604;2023-02-02T10:39:18;100816.94;;;8.22;90.75
16821;BME280;8527;49.740;6.604;2023-02-02T10:44:30;100822.59;;;8.18;91.08
16821;BME280;8527;49.740;6.604;2023-02-02T10:49:32;100818.84;;;8.20;90.98
16821;BME280;8527;49.740;6.604;2023-02-02T10:54:52;100828.81;;;8.28;90.25
16821;BME280;8527;49.740;6.604;2023-02-02T11:00:04;100826.03;;;8.29;89.74
16821;BME280;8527;49.740;6.604;2023-02-02T11:05:05;100840.41;;;8.15;89.25
16821;BME280;8527;49.740;6.604;2023-02-02T11:10:16;100832.25;;;8.07;89.31
16821;BME280;8527;49.740;6.604;2023-02-02T11:15:27;100827.94;;;8.06;89.47
16821;BME280;8527;49.740;6.604;2023-02-02T11:20:32;100835.22;;;8.14;89.49
16821;BME280;8527;49.740;6.604;2023-02-02T11:25:33;100827.88;;;8.18;89.35
16821;BME280;8527;49.740;6.604;2023-02-02T11:30:36;100836.19;;;8.13;89.35
16821;BME280;8527;49.740;6.604;2023-02-02T11:35:35;100822.72;;;8.16;89.48
16821;BME280;8527;49.740;6.604;2023-02-02T11:40:39;100816.34;;;8.19;89.12
16821;BME280;8527;49.740;6.604;2023-02-02T11:45:43;100815.63;;;8.16;89.02
16821;BME280;8527;49.740;6.604;2023-02-02T11:50:45;100812.25;;;8.14;89.09
16821;BME280;8527;49.740;6.604;2023-02-02T11:55:47;100807.78;;;8.26;88.93
16821;BME280;8527;49.740;6.604;2023-02-02T12:00:49;100808.16;;;8.22;88.37
16821;BME280;8527;49.740;6.604;2023-02-02T12:05:49;100811.25;;;8.27;88.33
16821;BME280;8527;49.740;6.604;2023-02-02T12:10:59;100811.84;;;8.30;88.11
16821;BME280;8527;49.740;6.604;2023-02-02T12:16:09;100801.25;;;8.30;88.19
16821;BME280;8527;49.740;6.604;2023-02-02T12:21:15;100787.44;;;8.27;87.96
16821;BME280;8527;49.740;6.604;2023-02-02T12:26:22;100792.34;;;8.31;87.83
16821;BME280;8527;49.740;6.604;2023-02-02T12:31:37;100796.56;;;8.34;87.93
16821;BME280;8527;49.740;6.604;2023-02-02T12:36:49;100800.19;;;8.33;86.94
16821;BME280;8527;49.740;6.604;2023-02-02T12:42:16;100805.91;;;8.38;87.42
16821;BME280;8527;49.740;6.604;2023-02-02T12:47:24;100791.97;;;8.36;86.96
16821;BME280;8527;49.740;6.604;2023-02-02T12:52:39;100787.00;;;8.43;86.41
16821;BME280;8527;49.740;6.604;2023-02-02T12:57:50;100779.06;;;8.54;85.79
16821;BME280;8527;49.740;6.604;2023-02-02T13:03:08;100773.88;;;8.53;86.31
16821;BME280;8527;49.740;6.604;2023-02-02T13:08:12;100765.94;;;8.74;85.66
16821;BME280;8527;49.740;6.604;2023-02-02T13:13:17;100777.22;;;8.76;84.08
16821;BME280;8527;49.740;6.604;2023-02-02T13:18:23;100773.75;;;9.07;84.86
16821;BME280;8527;49.740;6.604;2023-02-02T13:23:27;100755.53;;;9.13;84.14
16821;BME280;8527;49.740;6.604;2023-02-02T13:28:35;100755.06;;;9.59;82.96
16821;BME280;8527;49.740;6.604;2023-02-02T13:33:38;100750.91;;;9.66;81.57
16821;BME280;8527;49.740;6.604;2023-02-02T13:38:42;100753.97;;;9.52;81.76
16821;BME280;8527;49.740;6.604;2023-02-02T13:43:47;100756.03;;;9.38;81.58
16821;BME280;8527;49.740;6.604;2023-02-02T13:49:01;100767.13;;;9.32;81.70
16821;BME280;8527;49.740;6.604;2023-02-02T13:54:20;100760.84;;;9.23;81.80
16821;BME280;8527;49.740;6.604;2023-02-02T13:59:50;100767.22;;;9.11;81.98
16821;BME280;8527;49.740;6.604;2023-02-02T14:04:55;100771.22;;;9.05;81.52
16821;BME280;8527;49.740;6.604;2023-02-02T14:09:54;100789.88;;;9.04;82.05
16821;BME280;8527;49.740;6.604;2023-02-02T14:14:56;100796.97;;;8.93;81.62
16821;BME280;8527;49.740;6.604;2023-02-02T14:19:58;100809.53;;;9.01;81.72
16821;BME280;8527;49.740;6.604;2023-02-02T14:24:58;100810.81;;;9.07;81.61
16821;BME280;8527;49.740;6.604;2023-02-02T14:30:00;100806.97;;;8.90;81.94
16821;BME280;8527;49.740;6.604;2023-02-02T14:40:42;100820.28;;;8.78;82.66
16821;BME280;8527;49.740;6.604;2023-02-02T14:45:45;100824.00;;;8.76;82.98
16821;BME280;8527;49.740;6.604;2023-02-02T14:50:47;100824.00;;;8.76;83.30
16821;BME280;8527;49.740;6.604;2023-02-02T14:55:55;100838.28;;;8.63;83.35
16821;BME280;8527;49.740;6.604;2023-02-02T15:00:57;100834.13;;;8.49;83.90
16821;BME280;8527;49.740;6.604;2023-02-02T15:06:05;100852.03;;;8.45;84.51
16821;BME280;8527;49.740;6.604;2023-02-02T15:11:09;100862.41;;;8.37;84.64
16821;BME280;8527;49.740;6.604;2023-02-02T15:16:24;100862.78;;;8.33;84.74
16821;BME280;8527;49.740;6.604;2023-02-02T15:21:25;100863.50;;;8.35;84.65
16821;BME280;8527;49.740;6.604;2023-02-02T15:26:32;100866.16;;;8.35;84.55
16821;BME280;8527;49.740;6.604;2023-02-02T15:31:36;100873.84;;;8.38;84.38
16821;BME280;8527;49.740;6.604;2023-02-02T15:36:41;100883.28;;;8.40;84.14
16821;BME280;8527;49.740;6.604;2023-02-02T15:41:44;100891.66;;;8.24;84.63
16821;BME280;8527;49.740;6.604;2023-02-02T15:46:43;100886.53;;;8.11;85.55
16821;BME280;8527;49.740;6.604;2023-02-02T15:51:42;100891.69;;;8.13;85.76
16821;BME280;8527;49.740;6.604;2023-02-02T15:56:45;100902.53;;;8.10;86.08
16821;BME280;8527;49.740;6.604;2023-02-02T16:01:49;100888.00;;;8.04;86.24
16821;BME280;8527;49.740;6.604;2023-02-02T16:06:50;100905.03;;;8.00;86.47
16821;BME280;8527;49.740;6.604;2023-02-02T16:11:54;100915.50;;;8.01;86.71
16821;BME280;8527;49.740;6.604;2023-02-02T16:17:09;100931.13;;;7.93;86.31
16821;BME280;8527;49.740;6.604;2023-02-02T16:22:14;100925.34;;;7.99;86.24
16821;BME280;8527;49.740;6.604;2023-02-02T16:27:19;100926.78;;;7.92;86.14
16821;BME280;8527;49.740;6.604;2023-02-02T16:32:25;100928.97;;;7.87;86.30
16821;BME280;8527;49.740;6.604;2023-02-02T16:37:25;100940.50;;;7.86;85.99
16821;BME280;8527;49.740;6.604;2023-02-02T16:42:28;100932.22;;;7.79;86.31
16821;BME280;8527;49.740;6.604;2023-02-02T16:47:33;100932.59;;;7.86;86.54
16821;BME280;8527;49.740;6.604;2023-02-02T16:52:46;100951.28;;;7.83;86.07
16821;BME280;8527;49.740;6.604;2023-02-02T16:58:00;100938.81;;;7.62;86.53
16821;BME280;8527;49.740;6.604;2023-02-02T17:03:03;100939.44;;;7.54;87.36
16821;BME280;8527;49.740;6.604;2023-02-02T17:08:04;100942.06;;;7.54;87.21
16821;BME280;8527;49.740;6.604;2023-02-02T17:13:34;100946.25;;;7.45;87.61
16821;BME280;8527;49.740;6.604;2023-02-02T17:18:33;100957.19;;;7.41;88.06
16821;BME280;8527;49.740;6.604;2023-02-02T17:23:33;100964.34;;;7.39;88.22
16821;BME280;8527;49.740;6.604;2023-02-02T17:28:36;100973.56;;;7.33;89.01
16821;BME280;8527;49.740;6.604;2023-02-02T17:33:37;100975.28;;;7.34;88.70
16821;BME280;8527;49.740;6.604;2023-02-02T17:38:39;100987.97;;;7.29;89.01
16821;BME280;8527;49.740;6.604;2023-02-02T17:43:46;100991.69;;;7.26;89.36
16821;BME280;8527;49.740;6.604;2023-02-02T17:48:58;100989.91;;;7.27;89.21
16821;BME280;8527;49.740;6.604;2023-02-02T17:54:04;100982.84;;;7.27;89.29
16821;BME280;8527;49.740;6.604;2023-02-02T17:59:09;100987.25;;;7.27;89.21
16821;BME280;8527;49.740;6.604;2023-02-02T18:04:10;100989.41;;;7.22;89.12
16821;BME280;8527;49.740;6.604;2023-02-02T18:09:11;100992.25;;;7.18;89.15
16821;BME280;8527;49.740;6.604;2023-02-02T18:14:12;100989.53;;;7.20;89.38
16821;BME280;8527;49.740;6.604;2023-02-02T18:19:13;100986.16;;;7.18;89.46
16821;BME280;8527;49.740;6.604;2023-02-02T18:24:16;100999.13;;;7.21;89.26
16821;BME280;8527;49.740;6.604;2023-02-02T18:29:20;100992.16;;;7.20;89.74
16821;BME280;8527;49.740;6.604;2023-02-02T18:34:21;100994.69;;;7.22;89.81
16821;BME280;8527;49.740;6.604;2023-02-02T18:39:26;100992.88;;;7.22;90.04
16821;BME280;8527;49.740;6.604;2023-02-02T18:44:30;101002.47;;;7.23;89.90
16821;BME280;8527;49.740;6.604;2023-02-02T18:49:29;100994.69;;;7.22;90.16
16821;BME280;8527;49.740;6.604;2023-02-02T18:54:28;100986.88;;;7.20;90.58
16821;BME280;8527;49.740;6.604;2023-02-02T18:59:29;100981.84;;;7.17;91.32
16821;BME280;8527;49.740;6.604;2023-02-02T19:04:30;100990.25;;;7.22;91.22
16821;BME280;8527;49.740;6.604;2023-02-02T19:09:29;100983.53;;;7.18;92.42
16821;BME280;8527;49.740;6.604;2023-02-02T19:14:31;100989.03;;;7.15;92.63
16821;BME280;8527;49.740;6.604;2023-02-02T19:19:33;100995.81;;;7.06;93.95
16821;BME280;8527;49.740;6.604;2023-02-02T19:24:35;100990.69;;;7.04;94.47
16821;BME280;8527;49.740;6.604;2023-02-02T19:29:40;100992.84;;;7.11;94.30
16821;BME280;8527;49.740;6.604;2023-02-02T19:34:38;100992.75;;;7.12;93.75
16821;BME280;8527;49.740;6.604;2023-02-02T19:39:39;100998.47;;;7.06;94.34
16821;BME280;8527;49.740;6.604;2023-02-02T19:44:41;100997.88;;;7.02;95.36
16821;BME280;8527;49.740;6.604;2023-02-02T19:49:40;100996.06;;;7.03;95.05
16821;BME280;8527;49.740;6.604;2023-02-02T19:54:40;101007.66;;;7.00;95.02
16821;BME280;8527;49.740;6.604;2023-02-02T19:59:45;101008.28;;;7.04;95.42
16821;BME280;8527;49.740;6.604;2023-02-02T20:04:47;101004.81;;;7.03;96.01
16821;BME280;8527;49.740;6.604;2023-02-02T20:09:54;101016.44;;;7.01;96.23
16821;BME280;8527;49.740;6.604;2023-02-02T20:15:00;101017.41;;;7.00;96.76
16821;BME280;8527;49.740;6.604;2023-02-02T20:19:59;101025.06;;;7.03;96.53
16821;BME280;8527;49.740;6.604;2023-02-02T20:25:02;101023.16;;;7.05;97.03
16821;BME280;8527;49.740;6.604;2023-02-02T20:30:17;101018.84;;;7.04;96.73
16821;BME280;8527;49.740;6.604;2023-02-02T20:35:22;101019.81;;;7.03;97.66
16821;BME280;8527;49.740;6.604;2023-02-02T20:40:26;101022.19;;;7.06;97.38
16821;BME280;8527;49.740;6.604;2023-02-02T20:45:28;101027.47;;;7.06;97.47
16821;BME280;8527;49.740;6.604;2023-02-02T20:50:27;101020.19;;;7.10;97.61
16821;BME280;8527;49.740;6.604;2023-02-02T20:55:27;101017.53;;;7.10;97.61
16821;BME280;8527;49.740;6.604;2023-02-02T21:00:28;101020.19;;;7.10;98.16
16821;BME280;8527;49.740;6.604;2023-02-02T21:05:26;101020.66;;;7.03;98.99
16821;BME280;8527;49.740;6.604;2023-02-02T21:10:25;101018.84;;;7.04;99.06
16821;BME280;8527;49.740;6.604;2023-02-02T21:15:24;101020.41;;;7.07;99.30
16821;BME280;8527;49.740;6.604;2023-02-02T21:20:26;101022.09;;;7.08;99.55
16821;BME280;8527;49.740;6.604;2023-02-02T21:25:31;101025.22;;;7.13;99.56
16821;BME280;8527;49.740;6.604;2023-02-02T21:30:29;101027.38;;;7.08;100.00
16821;BME280;8527;49.740;6.604;2023-02-02T21:35:31;101039.22;;;7.02;100.00
16821;BME280;8527;49.740;6.604;2023-02-02T21:40:30;101023.72;;;6.97;100.00
16821;BME280;8527;49.740;6.604;2023-02-02T21:45:33;101038.28;;;7.03;100.00
16821;BME280;8527;49.740;6.604;2023-02-02T21:50:38;101035.16;;;6.98;100.00
16821;BME280;8527;49.740;6.604;2023-02-02T21:55:38;101030.81;;;6.97;100.00
16821;BME280;8527;49.740;6.604;2023-02-02T22:00:37;101016.88;;;6.95;100.00
16821;BME280;8527;49.740;6.604;2023-02-02T22:05:48;101023.25;;;6.92;100.00
16821;BME280;8527;49.740;6.604;2023-02-02T22:10:51;101026.94;;;6.89;100.00
16821;BME280;8527;49.740;6.604;2023-02-02T22:15:51;101014.38;;;6.93;100.00
16821;BME280;8527;49.740;6.604;2023-02-02T22:20:55;101014.72;;;6.88;100.00
16821;BME280;8527;49.740;6.604;2023-02-02T22:25:55;101027.19;;;6.86;100.00
16821;BME280;8527;49.740;6.604;2023-02-02T22:30:57;101036.66;;;6.89;100.00
16821;BME280;8527;49.740;6.604;2023-02-02T22:35:59;101045.63;;;6.86;100.00
16821;BME280;8527;49.740;6.604;2023-02-02T22:40:57;101061.47;;;6.86;100.00
16821;BME280;8527;49.740;6.604;2023-02-02T22:45:56;101067.38;;;6.90;100.00
16821;BME280;8527;49.740;6.604;2023-02-02T22:51:08;101070.41;;;6.97;100.00
16821;BME280;8527;49.740;6.604;2023-02-02T22:56:06;101067.00;;;6.95;100.00
16821;BME280;8527;49.740;6.604;2023-02-02T23:01:04;101060.19;;;6.92;100.00
16821;BME280;8527;49.740;6.604;2023-02-02T23:06:06;101061.00;;;6.93;100.00
16821;BME280;8527;49.740;6.604;2023-02-02T23:11:09;101067.97;;;6.94;100.00
16821;BME280;8527;49.740;6.604;2023-02-02T23:16:07;101050.69;;;6.89;100.00
16821;BME280;8527;49.740;6.604;2023-02-02T23:21:08;101047.22;;;6.89;100.00
16821;BME280;8527;49.740;6.604;2023-02-02T23:26:06;101045.19;;;6.93;100.00
16821;BME280;8527;49.740;6.604;2023-02-02T23:31:14;101049.72;;;6.90;100.00
16821;BME280;8527;49.740;6.604;2023-02-02T23:36:18;101045.50;;;6.88;100.00
16821;BME280;8527;49.740;6.604;2023-02-02T23:41:17;101044.44;;;6.90;100.00
16821;BME280;8527;49.740;6.604;2023-02-02T23:46:21;101053.31;;;6.89;100.00
16821;BME280;8527;49.740;6.604;2023-02-02T23:51:26;101058.50;;;6.91;100.00
16821;BME280;8527;49.740;6.604;2023-02-02T23:56:24;101052.13;;;6.94;100.00
